首页
METAR-TAF:

METAR-TAF

机场 :

Massena, 紐約州, 美国

纬度: 44-56-09N, 经度: 074-50-44W, 海拔: 66米

当前天气观测

该预报发布于46分钟前的11:53 UTC
风速9节,风向东转东北
温度 19°C
湿度 73%
气压 1023 hPa
能見度: 16.1公里
天空无云

METAR: KMSS 151153Z AUTO 07009KT 10SM CLR 19/14 A3022 RMK AO2 SLP231 T01890144 10189 20150 51010

时间: 08:39 (12:39 UTC)

预报

该预报发布于1小时和3分钟前的11:36 UTC
预报有效从15日的 12点(UTC)到 16日的 12点(UTC)
风速8节,风向东转东北
能見度: 10公里
天空无云
从 16日的 0200点(UTC)
风速5节,风向
能見度: 10公里
散云层高于15000英尺

TAF: KMSS 151136Z 1512/1612 07008KT P6SM SKC FM160200 08005KT P6SM SCT150

超过4000个机场的气象观测和天气预报(METAR&TAF报告)。

可查询的气象台以黄色和红色小点在地图上表示。

将鼠标移到小点上方,可查看气象台名称。

然后点击查看天气观测和预报。

如需切换地图:点击带黑十字的绿色按钮放大地图;点击带横线的绿色按钮缩小地图;或者点击绿色箭头查看邻近地区的地图。


METAR-TAF: